sensor_id;sensor_type;location;lat;lon;timestamp;temperature;humidity
58568;DHT22;44354;46.192;-1.076;2023-03-23T00:01:48;11.30;99.90
58568;DHT22;44354;46.192;-1.076;2023-03-23T00:04:15;11.30;99.90
58568;DHT22;44354;46.192;-1.076;2023-03-23T00:06:41;11.20;99.90
58568;DHT22;44354;46.192;-1.076;2023-03-23T00:09:08;11.20;99.90
58568;DHT22;44354;46.192;-1.076;2023-03-23T00:11:33;11.20;99.90
58568;DHT22;44354;46.192;-1.076;2023-03-23T00:13:59;11.20;99.90
58568;DHT22;44354;46.192;-1.076;2023-03-23T00:16:31;11.10;99.90
58568;DHT22;44354;46.192;-1.076;2023-03-23T00:19:01;11.10;99.90
58568;DHT22;44354;46.192;-1.076;2023-03-23T00:21:28;11.10;99.90
58568;DHT22;44354;46.192;-1.076;2023-03-23T00:24:04;11.00;99.90
58568;DHT22;44354;46.192;-1.076;2023-03-23T00:26:31;11.00;99.90
58568;DHT22;44354;46.192;-1.076;2023-03-23T00:28:59;11.20;99.90
58568;DHT22;44354;46.192;-1.076;2023-03-23T00:31:25;11.20;99.90
58568;DHT22;44354;46.192;-1.076;2023-03-23T00:33:56;11.30;99.90
58568;DHT22;44354;46.192;-1.076;2023-03-23T00:36:23;11.30;99.90
58568;DHT22;44354;46.192;-1.076;2023-03-23T00:38:49;11.30;99.90
58568;DHT22;44354;46.192;-1.076;2023-03-23T00:41:15;11.40;99.90
58568;DHT22;44354;46.192;-1.076;2023-03-23T00:43:40;11.40;99.90
58568;DHT22;44354;46.192;-1.076;2023-03-23T00:46:06;11.30;99.90
58568;DHT22;44354;46.192;-1.076;2023-03-23T00:48:37;11.30;99.90
58568;DHT22;44354;46.192;-1.076;2023-03-23T00:51:10;11.30;99.90
58568;DHT22;44354;46.192;-1.076;2023-03-23T00:53:36;11.30;99.90
58568;DHT22;44354;46.192;-1.076;2023-03-23T00:56:01;11.20;99.90
58568;DHT22;44354;46.192;-1.076;2023-03-23T00:58:27;11.20;99.90
58568;DHT22;44354;46.192;-1.076;2023-03-23T01:00:52;11.10;99.90
58568;DHT22;44354;46.192;-1.076;2023-03-23T01:03:18;11.10;99.90
58568;DHT22;44354;46.192;-1.076;2023-03-23T01:05:44;11.10;99.90
58568;DHT22;44354;46.192;-1.076;2023-03-23T01:08:12;11.00;99.90
58568;DHT22;44354;46.192;-1.076;2023-03-23T01:10:38;11.00;99.90
58568;DHT22;44354;46.192;-1.076;2023-03-23T01:13:04;11.00;99.90
58568;DHT22;44354;46.192;-1.076;2023-03-23T01:15:30;10.90;99.90
58568;DHT22;44354;46.192;-1.076;2023-03-23T01:17:56;10.90;99.90
58568;DHT22;44354;46.192;-1.076;2023-03-23T01:20:22;10.80;99.90
58568;DHT22;44354;46.192;-1.076;2023-03-23T01:22:47;10.90;99.90
58568;DHT22;44354;46.192;-1.076;2023-03-23T01:25:13;10.90;99.90
58568;DHT22;44354;46.192;-1.076;2023-03-23T01:27:39;10.80;99.90
58568;DHT22;44354;46.192;-1.076;2023-03-23T01:30:05;10.80;99.90
58568;DHT22;44354;46.192;-1.076;2023-03-23T01:32:31;10.80;99.90
58568;DHT22;44354;46.192;-1.076;2023-03-23T01:34:57;10.80;99.90
58568;DHT22;44354;46.192;-1.076;2023-03-23T01:37:22;10.80;99.90
58568;DHT22;44354;46.192;-1.076;2023-03-23T01:39:54;10.80;99.90
58568;DHT22;44354;46.192;-1.076;2023-03-23T01:42:23;10.80;99.90
58568;DHT22;44354;46.192;-1.076;2023-03-23T01:47:14;10.80;99.90
58568;DHT22;44354;46.192;-1.076;2023-03-23T01:49:42;10.80;99.90
58568;DHT22;44354;46.192;-1.076;2023-03-23T01:52:11;10.90;99.90
58568;DHT22;44354;46.192;-1.076;2023-03-23T01:54:42;10.90;99.90
58568;DHT22;44354;46.192;-1.076;2023-03-23T01:57:11;10.90;99.90
58568;DHT22;44354;46.192;-1.076;2023-03-23T01:59:38;11.00;99.90
58568;DHT22;44354;46.192;-1.076;2023-03-23T02:02:06;11.00;99.90
58568;DHT22;44354;46.192;-1.076;2023-03-23T02:04:31;11.10;99.90
58568;DHT22;44354;46.192;-1.076;2023-03-23T02:06:59;11.20;99.90
58568;DHT22;44354;46.192;-1.076;2023-03-23T02:09:27;11.30;99.90
58568;DHT22;44354;46.192;-1.076;2023-03-23T02:11:53;11.40;99.90
58568;DHT22;44354;46.192;-1.076;2023-03-23T02:14:19;11.50;99.90
58568;DHT22;44354;46.192;-1.076;2023-03-23T02:22:28;11.60;99.90
58568;DHT22;44354;46.192;-1.076;2023-03-23T02:35:30;11.70;99.90
58568;DHT22;44354;46.192;-1.076;2023-03-23T02:38:00;11.70;99.90
58568;DHT22;44354;46.192;-1.076;2023-03-23T02:40:30;11.70;99.90
58568;DHT22;44354;46.192;-1.076;2023-03-23T02:42:57;11.70;99.90
58568;DHT22;44354;46.192;-1.076;2023-03-23T02:45:24;11.70;99.90
58568;DHT22;44354;46.192;-1.076;2023-03-23T02:47:52;11.70;99.90
58568;DHT22;44354;46.192;-1.076;2023-03-23T02:50:19;11.70;99.90
58568;DHT22;44354;46.192;-1.076;2023-03-23T02:52:46;11.70;99.90
58568;DHT22;44354;46.192;-1.076;2023-03-23T02:55:13;11.70;99.90
58568;DHT22;44354;46.192;-1.076;2023-03-23T02:57:39;11.70;99.90
58568;DHT22;44354;46.192;-1.076;2023-03-23T03:00:05;11.70;99.90
58568;DHT22;44354;46.192;-1.076;2023-03-23T03:02:36;11.70;99.90
58568;DHT22;44354;46.192;-1.076;2023-03-23T03:05:09;11.70;99.90
58568;DHT22;44354;46.192;-1.076;2023-03-23T03:07:47;11.70;99.90
58568;DHT22;44354;46.192;-1.076;2023-03-23T03:10:23;11.80;99.90
58568;DHT22;44354;46.192;-1.076;2023-03-23T03:12:54;11.80;99.90
58568;DHT22;44354;46.192;-1.076;2023-03-23T03:15:29;11.90;99.90
58568;DHT22;44354;46.192;-1.076;2023-03-23T03:18:00;11.90;99.90
58568;DHT22;44354;46.192;-1.076;2023-03-23T03:20:28;11.90;99.90
58568;DHT22;44354;46.192;-1.076;2023-03-23T03:22:54;11.90;99.90
58568;DHT22;44354;46.192;-1.076;2023-03-23T03:25:21;11.90;99.90
58568;DHT22;44354;46.192;-1.076;2023-03-23T03:27:48;12.00;99.90
58568;DHT22;44354;46.192;-1.076;2023-03-23T03:30:19;12.00;99.90
58568;DHT22;44354;46.192;-1.076;2023-03-23T03:32:47;11.90;99.90
58568;DHT22;44354;46.192;-1.076;2023-03-23T03:35:14;12.00;99.90
58568;DHT22;44354;46.192;-1.076;2023-03-23T03:37:40;12.20;99.90
58568;DHT22;44354;46.192;-1.076;2023-03-23T03:40:08;12.30;99.90
58568;DHT22;44354;46.192;-1.076;2023-03-23T03:42:37;12.40;99.90
58568;DHT22;44354;46.192;-1.076;2023-03-23T03:45:03;12.50;99.90
58568;DHT22;44354;46.192;-1.076;2023-03-23T03:47:28;12.60;99.90
58568;DHT22;44354;46.192;-1.076;2023-03-23T03:49:54;12.60;99.90
58568;DHT22;44354;46.192;-1.076;2023-03-23T03:52:20;12.50;99.90
58568;DHT22;44354;46.192;-1.076;2023-03-23T03:54:46;12.50;99.90
58568;DHT22;44354;46.192;-1.076;2023-03-23T03:57:12;12.40;99.90
58568;DHT22;44354;46.192;-1.076;2023-03-23T03:59:37;12.20;99.90
58568;DHT22;44354;46.192;-1.076;2023-03-23T04:02:03;12.20;99.90
58568;DHT22;44354;46.192;-1.076;2023-03-23T04:04:29;12.00;99.90
58568;DHT22;44354;46.192;-1.076;2023-03-23T04:06:54;11.90;99.90
58568;DHT22;44354;46.192;-1.076;2023-03-23T04:09:20;11.80;99.90
58568;DHT22;44354;46.192;-1.076;2023-03-23T04:11:46;11.70;99.90
58568;DHT22;44354;46.192;-1.076;2023-03-23T04:14:12;11.60;99.90
58568;DHT22;44354;46.192;-1.076;2023-03-23T04:16:37;11.60;99.90
58568;DHT22;44354;46.192;-1.076;2023-03-23T04:19:03;11.60;99.90
58568;DHT22;44354;46.192;-1.076;2023-03-23T04:21:29;11.50;99.90
58568;DHT22;44354;46.192;-1.076;2023-03-23T04:23:57;11.50;99.90
58568;DHT22;44354;46.192;-1.076;2023-03-23T04:26:25;11.50;99.90
58568;DHT22;44354;46.192;-1.076;2023-03-23T04:28:51;11.50;99.90
58568;DHT22;44354;46.192;-1.076;2023-03-23T04:31:17;11.50;99.90
58568;DHT22;44354;46.192;-1.076;2023-03-23T04:33:43;11.50;99.90
58568;DHT22;44354;46.192;-1.076;2023-03-23T04:36:08;11.50;99.90
58568;DHT22;44354;46.192;-1.076;2023-03-23T04:38:34;11.50;99.90
58568;DHT22;44354;46.192;-1.076;2023-03-23T04:41:00;11.60;99.90
58568;DHT22;44354;46.192;-1.076;2023-03-23T04:43:27;11.60;99.90
58568;DHT22;44354;46.192;-1.076;2023-03-23T04:45:53;11.60;99.90
58568;DHT22;44354;46.192;-1.076;2023-03-23T04:48:22;11.60;99.90
58568;DHT22;44354;46.192;-1.076;2023-03-23T04:50:48;11.60;99.90
58568;DHT22;44354;46.192;-1.076;2023-03-23T04:53:15;11.60;99.90
58568;DHT22;44354;46.192;-1.076;2023-03-23T04:55:43;11.60;99.90
58568;DHT22;44354;46.192;-1.076;2023-03-23T04:58:09;11.60;99.90
58568;DHT22;44354;46.192;-1.076;2023-03-23T05:00:35;11.60;99.90
58568;DHT22;44354;46.192;-1.076;2023-03-23T05:03:01;11.60;99.90
58568;DHT22;44354;46.192;-1.076;2023-03-23T05:05:27;11.70;99.90
58568;DHT22;44354;46.192;-1.076;2023-03-23T05:07:55;11.80;99.90
58568;DHT22;44354;46.192;-1.076;2023-03-23T05:10:21;11.70;99.90
58568;DHT22;44354;46.192;-1.076;2023-03-23T05:12:47;11.70;99.90
58568;DHT22;44354;46.192;-1.076;2023-03-23T05:15:13;11.70;99.90
58568;DHT22;44354;46.192;-1.076;2023-03-23T05:17:39;11.80;99.90
58568;DHT22;44354;46.192;-1.076;2023-03-23T05:20:06;11.80;99.90
58568;DHT22;44354;46.192;-1.076;2023-03-23T05:22:36;11.80;99.90
58568;DHT22;44354;46.192;-1.076;2023-03-23T05:25:02;11.80;99.90
58568;DHT22;44354;46.192;-1.076;2023-03-23T05:27:28;11.80;99.90
58568;DHT22;44354;46.192;-1.076;2023-03-23T05:29:56;11.80;99.90
58568;DHT22;44354;46.192;-1.076;2023-03-23T05:32:24;11.90;99.90
58568;DHT22;44354;46.192;-1.076;2023-03-23T05:34:57;11.90;99.90
58568;DHT22;44354;46.192;-1.076;2023-03-23T05:37:22;11.90;99.90
58568;DHT22;44354;46.192;-1.076;2023-03-23T05:39:48;11.90;99.90
58568;DHT22;44354;46.192;-1.076;2023-03-23T05:42:13;11.90;99.90
58568;DHT22;44354;46.192;-1.076;2023-03-23T05:44:39;11.90;99.90
58568;DHT22;44354;46.192;-1.076;2023-03-23T05:47:05;11.90;99.90
58568;DHT22;44354;46.192;-1.076;2023-03-23T05:49:30;11.90;99.90
58568;DHT22;44354;46.192;-1.076;2023-03-23T05:51:56;11.90;99.90
58568;DHT22;44354;46.192;-1.076;2023-03-23T05:54:22;12.00;99.90
58568;DHT22;44354;46.192;-1.076;2023-03-23T05:56:47;11.90;99.90
58568;DHT22;44354;46.192;-1.076;2023-03-23T05:59:14;12.00;99.90
58568;DHT22;44354;46.192;-1.076;2023-03-23T06:01:39;12.00;99.90
58568;DHT22;44354;46.192;-1.076;2023-03-23T06:04:05;12.00;99.90
58568;DHT22;44354;46.192;-1.076;2023-03-23T06:06:31;12.00;99.90
58568;DHT22;44354;46.192;-1.076;2023-03-23T06:08:57;12.00;99.90
58568;DHT22;44354;46.192;-1.076;2023-03-23T06:11:23;12.00;99.90
58568;DHT22;44354;46.192;-1.076;2023-03-23T06:13:50;12.10;99.90
58568;DHT22;44354;46.192;-1.076;2023-03-23T06:16:16;12.10;99.90
58568;DHT22;44354;46.192;-1.076;2023-03-23T06:18:42;12.00;99.90
58568;DHT22;44354;46.192;-1.076;2023-03-23T06:21:08;12.00;99.90
58568;DHT22;44354;46.192;-1.076;2023-03-23T06:23:34;12.10;99.90
58568;DHT22;44354;46.192;-1.076;2023-03-23T06:26:02;12.10;99.90
58568;DHT22;44354;46.192;-1.076;2023-03-23T06:28:27;12.20;99.90
58568;DHT22;44354;46.192;-1.076;2023-03-23T06:30:53;12.20;99.90
58568;DHT22;44354;46.192;-1.076;2023-03-23T06:33:19;12.20;99.90
58568;DHT22;44354;46.192;-1.076;2023-03-23T06:35:44;12.10;99.90
58568;DHT22;44354;46.192;-1.076;2023-03-23T06:38:10;12.20;99.90
58568;DHT22;44354;46.192;-1.076;2023-03-23T06:40:36;12.20;99.90
58568;DHT22;44354;46.192;-1.076;2023-03-23T06:43:02;12.10;99.90
58568;DHT22;44354;46.192;-1.076;2023-03-23T06:45:29;12.20;99.90
58568;DHT22;44354;46.192;-1.076;2023-03-23T06:47:55;12.10;99.90
58568;DHT22;44354;46.192;-1.076;2023-03-23T06:50:20;12.20;99.90
58568;DHT22;44354;46.192;-1.076;2023-03-23T06:52:46;12.20;99.90
58568;DHT22;44354;46.192;-1.076;2023-03-23T06:55:13;12.20;99.90
58568;DHT22;44354;46.192;-1.076;2023-03-23T06:57:38;12.10;99.90
58568;DHT22;44354;46.192;-1.076;2023-03-23T07:00:04;12.20;99.90
58568;DHT22;44354;46.192;-1.076;2023-03-23T07:02:34;12.20;99.90
58568;DHT22;44354;46.192;-1.076;2023-03-23T07:05:01;12.10;99.90
58568;DHT22;44354;46.192;-1.076;2023-03-23T07:07:26;12.20;99.90
58568;DHT22;44354;46.192;-1.076;2023-03-23T07:09:52;12.20;99.90
58568;DHT22;44354;46.192;-1.076;2023-03-23T07:12:18;12.10;99.90
58568;DHT22;44354;46.192;-1.076;2023-03-23T07:14:43;12.20;99.90
58568;DHT22;44354;46.192;-1.076;2023-03-23T07:17:17;12.20;99.90
58568;DHT22;44354;46.192;-1.076;2023-03-23T07:19:46;12.20;99.90
58568;DHT22;44354;46.192;-1.076;2023-03-23T07:22:11;12.20;99.90
58568;DHT22;44354;46.192;-1.076;2023-03-23T07:24:37;12.20;99.90
58568;DHT22;44354;46.192;-1.076;2023-03-23T07:27:06;12.20;99.90
58568;DHT22;44354;46.192;-1.076;2023-03-23T07:29:34;12.20;99.90
58568;DHT22;44354;46.192;-1.076;2023-03-23T07:32:30;12.20;99.90
58568;DHT22;44354;46.192;-1.076;2023-03-23T07:34:56;12.30;99.90
58568;DHT22;44354;46.192;-1.076;2023-03-23T07:37:25;12.30;99.90
58568;DHT22;44354;46.192;-1.076;2023-03-23T07:39:54;12.40;99.90
58568;DHT22;44354;46.192;-1.076;2023-03-23T07:42:19;12.40;99.90
58568;DHT22;44354;46.192;-1.076;2023-03-23T07:44:45;12.40;99.90
58568;DHT22;44354;46.192;-1.076;2023-03-23T07:47:11;12.40;99.90
58568;DHT22;44354;46.192;-1.076;2023-03-23T07:49:37;12.40;99.90
58568;DHT22;44354;46.192;-1.076;2023-03-23T07:52:02;12.40;99.90
58568;DHT22;44354;46.192;-1.076;2023-03-23T07:54:28;12.50;99.90
58568;DHT22;44354;46.192;-1.076;2023-03-23T07:56:54;12.40;99.90
58568;DHT22;44354;46.192;-1.076;2023-03-23T07:59:20;12.50;99.90
58568;DHT22;44354;46.192;-1.076;2023-03-23T08:01:45;12.50;99.90
58568;DHT22;44354;46.192;-1.076;2023-03-23T08:04:11;12.60;99.90
58568;DHT22;44354;46.192;-1.076;2023-03-23T08:06:38;12.60;99.90
58568;DHT22;44354;46.192;-1.076;2023-03-23T08:09:05;12.70;99.90
58568;DHT22;44354;46.192;-1.076;2023-03-23T08:11:34;12.80;99.90
58568;DHT22;44354;46.192;-1.076;2023-03-23T08:14:00;12.90;99.90
58568;DHT22;44354;46.192;-1.076;2023-03-23T08:16:26;13.00;99.90
58568;DHT22;44354;46.192;-1.076;2023-03-23T08:18:51;13.20;99.90
58568;DHT22;44354;46.192;-1.076;2023-03-23T08:21:17;13.20;99.90
58568;DHT22;44354;46.192;-1.076;2023-03-23T08:23:42;13.20;99.90
58568;DHT22;44354;46.192;-1.076;2023-03-23T08:26:09;13.30;99.90
58568;DHT22;44354;46.192;-1.076;2023-03-23T08:28:35;13.30;99.90
58568;DHT22;44354;46.192;-1.076;2023-03-23T08:31:05;13.30;99.90
58568;DHT22;44354;46.192;-1.076;2023-03-23T08:33:32;13.30;99.90
58568;DHT22;44354;46.192;-1.076;2023-03-23T08:35:58;13.30;99.90
58568;DHT22;44354;46.192;-1.076;2023-03-23T08:38:25;13.30;99.90
58568;DHT22;44354;46.192;-1.076;2023-03-23T08:40:50;13.30;99.90
58568;DHT22;44354;46.192;-1.076;2023-03-23T08:43:17;13.30;99.90
58568;DHT22;44354;46.192;-1.076;2023-03-23T08:45:42;13.20;99.90
58568;DHT22;44354;46.192;-1.076;2023-03-23T08:48:08;13.30;99.90
58568;DHT22;44354;46.192;-1.076;2023-03-23T08:50:36;13.30;99.90
58568;DHT22;44354;46.192;-1.076;2023-03-23T08:53:02;13.30;99.90
58568;DHT22;44354;46.192;-1.076;2023-03-23T08:55:28;13.40;99.90
58568;DHT22;44354;46.192;-1.076;2023-03-23T08:57:53;13.50;99.90
58568;DHT22;44354;46.192;-1.076;2023-03-23T09:00:20;13.50;99.90
58568;DHT22;44354;46.192;-1.076;2023-03-23T09:02:50;13.50;99.90
58568;DHT22;44354;46.192;-1.076;2023-03-23T09:05:17;13.50;99.90
58568;DHT22;44354;46.192;-1.076;2023-03-23T09:07:45;13.50;99.90
58568;DHT22;44354;46.192;-1.076;2023-03-23T09:10:11;13.50;99.90
58568;DHT22;44354;46.192;-1.076;2023-03-23T09:12:38;13.50;99.90
58568;DHT22;44354;46.192;-1.076;2023-03-23T09:15:04;13.50;99.90
58568;DHT22;44354;46.192;-1.076;2023-03-23T09:17:30;13.40;99.90
58568;DHT22;44354;46.192;-1.076;2023-03-23T09:19:56;13.40;99.90
58568;DHT22;44354;46.192;-1.076;2023-03-23T09:22:22;13.50;99.90
58568;DHT22;44354;46.192;-1.076;2023-03-23T09:24:49;13.60;99.90
58568;DHT22;44354;46.192;-1.076;2023-03-23T09:27:15;13.60;99.90
58568;DHT22;44354;46.192;-1.076;2023-03-23T09:29:41;13.70;99.90
58568;DHT22;44354;46.192;-1.076;2023-03-23T09:32:07;13.70;99.90
58568;DHT22;44354;46.192;-1.076;2023-03-23T09:34:33;13.80;99.90
58568;DHT22;44354;46.192;-1.076;2023-03-23T09:37:01;13.80;99.90
58568;DHT22;44354;46.192;-1.076;2023-03-23T09:39:29;13.90;99.90
58568;DHT22;44354;46.192;-1.076;2023-03-23T09:47:11;14.10;99.90
58568;DHT22;44354;46.192;-1.076;2023-03-23T09:49:45;14.30;99.90
58568;DHT22;44354;46.192;-1.076;2023-03-23T09:52:14;14.40;99.90
58568;DHT22;44354;46.192;-1.076;2023-03-23T09:54:47;14.50;99.90
58568;DHT22;44354;46.192;-1.076;2023-03-23T09:57:22;14.30;99.90
58568;DHT22;44354;46.192;-1.076;2023-03-23T10:02:18;14.30;99.90
58568;DHT22;44354;46.192;-1.076;2023-03-23T10:04:46;14.30;99.90
58568;DHT22;44354;46.192;-1.076;2023-03-23T10:07:25;14.40;99.90
58568;DHT22;44354;46.192;-1.076;2023-03-23T10:09:53;14.40;99.90
58568;DHT22;44354;46.192;-1.076;2023-03-23T10:17:21;14.30;99.90
58568;DHT22;44354;46.192;-1.076;2023-03-23T10:22:18;14.40;99.90
58568;DHT22;44354;46.192;-1.076;2023-03-23T10:27:13;14.50;99.90
58568;DHT22;44354;46.192;-1.076;2023-03-23T10:29:52;14.40;99.90
58568;DHT22;44354;46.192;-1.076;2023-03-23T10:32:22;14.40;99.90
58568;DHT22;44354;46.192;-1.076;2023-03-23T10:37:37;14.30;99.90
58568;DHT22;44354;46.192;-1.076;2023-03-23T10:40:04;14.40;99.90
58568;DHT22;44354;46.192;-1.076;2023-03-23T10:42:32;14.50;99.90
58568;DHT22;44354;46.192;-1.076;2023-03-23T10:44:59;14.60;99.90
58568;DHT22;44354;46.192;-1.076;2023-03-23T10:47:25;14.70;99.90
58568;DHT22;44354;46.192;-1.076;2023-03-23T10:49:54;14.60;99.90
58568;DHT22;44354;46.192;-1.076;2023-03-23T10:52:26;14.60;99.90
58568;DHT22;44354;46.192;-1.076;2023-03-23T10:54:58;14.60;99.90
58568;DHT22;44354;46.192;-1.076;2023-03-23T10:57:26;14.60;99.90
58568;DHT22;44354;46.192;-1.076;2023-03-23T10:59:58;14.70;99.90
58568;DHT22;44354;46.192;-1.076;2023-03-23T11:02:23;14.80;99.90
58568;DHT22;44354;46.192;-1.076;2023-03-23T11:05:03;14.80;99.90
58568;DHT22;44354;46.192;-1.076;2023-03-23T11:07:32;14.80;99.90
58568;DHT22;44354;46.192;-1.076;2023-03-23T11:10:03;14.70;99.90
58568;DHT22;44354;46.192;-1.076;2023-03-23T11:12:32;14.60;99.90
58568;DHT22;44354;46.192;-1.076;2023-03-23T11:15:44;14.60;99.90
58568;DHT22;44354;46.192;-1.076;2023-03-23T11:17:53;14.50;99.90
58568;DHT22;44354;46.192;-1.076;2023-03-23T11:20:21;14.60;99.90
58568;DHT22;44354;46.192;-1.076;2023-03-23T11:22:46;14.70;99.90
58568;DHT22;44354;46.192;-1.076;2023-03-23T11:25:12;14.80;99.90
58568;DHT22;44354;46.192;-1.076;2023-03-23T11:27:39;14.80;99.90
58568;DHT22;44354;46.192;-1.076;2023-03-23T11:30:10;14.90;99.90
58568;DHT22;44354;46.192;-1.076;2023-03-23T11:32:44;15.00;99.90
58568;DHT22;44354;46.192;-1.076;2023-03-23T11:35:20;15.00;99.90
58568;DHT22;44354;46.192;-1.076;2023-03-23T11:37:51;15.00;99.90
58568;DHT22;44354;46.192;-1.076;2023-03-23T11:40:19;15.00;99.90
58568;DHT22;44354;46.192;-1.076;2023-03-23T11:42:45;15.00;99.90
58568;DHT22;44354;46.192;-1.076;2023-03-23T11:45:22;14.90;99.90
58568;DHT22;44354;46.192;-1.076;2023-03-23T11:50:54;14.80;99.90
58568;DHT22;44354;46.192;-1.076;2023-03-23T11:55:57;15.00;99.90
58568;DHT22;44354;46.192;-1.076;2023-03-23T11:58:23;15.10;99.90
58568;DHT22;44354;46.192;-1.076;2023-03-23T12:01:24;15.20;99.90
58568;DHT22;44354;46.192;-1.076;2023-03-23T12:12:02;15.50;99.90
58568;DHT22;44354;46.192;-1.076;2023-03-23T12:17:02;15.30;99.90
58568;DHT22;44354;46.192;-1.076;2023-03-23T12:22:05;15.10;99.90
58568;DHT22;44354;46.192;-1.076;2023-03-23T12:24:45;15.10;99.90
58568;DHT22;44354;46.192;-1.076;2023-03-23T12:29:45;15.00;99.90
58568;DHT22;44354;46.192;-1.076;2023-03-23T12:48:04;14.80;99.90
58568;DHT22;44354;46.192;-1.076;2023-03-23T12:50:32;14.80;99.90
58568;DHT22;44354;46.192;-1.076;2023-03-23T12:55:36;15.00;99.90
58568;DHT22;44354;46.192;-1.076;2023-03-23T12:58:05;15.10;99.90
58568;DHT22;44354;46.192;-1.076;2023-03-23T13:00:54;15.10;99.90
58568;DHT22;44354;46.192;-1.076;2023-03-23T13:06:29;15.10;99.90
58568;DHT22;44354;46.192;-1.076;2023-03-23T13:11:33;15.30;99.90
58568;DHT22;44354;46.192;-1.076;2023-03-23T13:16:36;15.40;99.90
58568;DHT22;44354;46.192;-1.076;2023-03-23T13:19:53;15.50;99.90
58568;DHT22;44354;46.192;-1.076;2023-03-23T13:24:29;15.50;99.90
58568;DHT22;44354;46.192;-1.076;2023-03-23T13:26:58;15.50;99.90
58568;DHT22;44354;46.192;-1.076;2023-03-23T13:29:26;15.30;99.90
58568;DHT22;44354;46.192;-1.076;2023-03-23T13:32:04;15.30;99.90
58568;DHT22;44354;46.192;-1.076;2023-03-23T13:34:30;15.30;99.90
58568;DHT22;44354;46.192;-1.076;2023-03-23T13:36:57;15.40;99.90
58568;DHT22;44354;46.192;-1.076;2023-03-23T13:39:27;15.40;99.90
58568;DHT22;44354;46.192;-1.076;2023-03-23T13:42:47;15.40;99.90
58568;DHT22;44354;46.192;-1.076;2023-03-23T13:52:38;15.50;99.90
58568;DHT22;44354;46.192;-1.076;2023-03-23T14:05:29;15.50;99.90
58568;DHT22;44354;46.192;-1.076;2023-03-23T14:07:57;15.50;99.90
58568;DHT22;44354;46.192;-1.076;2023-03-23T14:10:25;15.50;99.90
58568;DHT22;44354;46.192;-1.076;2023-03-23T14:12:56;15.50;99.90
58568;DHT22;44354;46.192;-1.076;2023-03-23T14:15:27;15.40;99.90
58568;DHT22;44354;46.192;-1.076;2023-03-23T14:17:53;15.50;99.90
58568;DHT22;44354;46.192;-1.076;2023-03-23T14:20:32;15.50;99.90
58568;DHT22;44354;46.192;-1.076;2023-03-23T14:22:59;15.40;99.90
58568;DHT22;44354;46.192;-1.076;2023-03-23T14:25:29;15.40;99.90
58568;DHT22;44354;46.192;-1.076;2023-03-23T14:27:56;15.40;99.90
58568;DHT22;44354;46.192;-1.076;2023-03-23T14:30:23;15.30;99.90
58568;DHT22;44354;46.192;-1.076;2023-03-23T14:32:53;15.30;99.90
58568;DHT22;44354;46.192;-1.076;2023-03-23T14:37:48;15.30;99.90
58568;DHT22;44354;46.192;-1.076;2023-03-23T14:40:15;15.20;99.90
58568;DHT22;44354;46.192;-1.076;2023-03-23T14:42:41;15.20;99.90
58568;DHT22;44354;46.192;-1.076;2023-03-23T14:45:10;15.10;99.90
58568;DHT22;44354;46.192;-1.076;2023-03-23T14:47:40;15.10;99.90
58568;DHT22;44354;46.192;-1.076;2023-03-23T14:52:56;15.00;99.90
58568;DHT22;44354;46.192;-1.076;2023-03-23T14:55:22;14.90;99.90
58568;DHT22;44354;46.192;-1.076;2023-03-23T14:57:48;14.90;99.90
58568;DHT22;44354;46.192;-1.076;2023-03-23T15:00:15;14.80;99.90
58568;DHT22;44354;46.192;-1.076;2023-03-23T15:02:41;14.80;99.90
58568;DHT22;44354;46.192;-1.076;2023-03-23T15:07:38;14.90;99.90
58568;DHT22;44354;46.192;-1.076;2023-03-23T15:10:05;14.90;99.90
58568;DHT22;44354;46.192;-1.076;2023-03-23T15:12:31;14.80;99.90
58568;DHT22;44354;46.192;-1.076;2023-03-23T15:14:58;14.80;99.90
58568;DHT22;44354;46.192;-1.076;2023-03-23T15:17:26;14.80;99.90
58568;DHT22;44354;46.192;-1.076;2023-03-23T15:19:53;14.80;99.90
58568;DHT22;44354;46.192;-1.076;2023-03-23T15:22:25;14.70;99.90
58568;DHT22;44354;46.192;-1.076;2023-03-23T15:24:52;14.70;99.90
58568;DHT22;44354;46.192;-1.076;2023-03-23T15:27:27;14.70;99.90
58568;DHT22;44354;46.192;-1.076;2023-03-23T15:29:54;14.60;99.90
58568;DHT22;44354;46.192;-1.076;2023-03-23T15:32:24;14.60;99.90
58568;DHT22;44354;46.192;-1.076;2023-03-23T15:34:50;14.60;99.90
58568;DHT22;44354;46.192;-1.076;2023-03-23T15:37:28;14.50;99.90
58568;DHT22;44354;46.192;-1.076;2023-03-23T15:39:55;14.50;99.90
58568;DHT22;44354;46.192;-1.076;2023-03-23T15:42:28;14.50;99.90
58568;DHT22;44354;46.192;-1.076;2023-03-23T15:47:37;14.40;99.90
58568;DHT22;44354;46.192;-1.076;2023-03-23T15:50:08;14.50;99.90
58568;DHT22;44354;46.192;-1.076;2023-03-23T15:52:34;14.50;99.90
58568;DHT22;44354;46.192;-1.076;2023-03-23T15:55:01;14.50;99.90
58568;DHT22;44354;46.192;-1.076;2023-03-23T15:57:29;14.60;99.90
58568;DHT22;44354;46.192;-1.076;2023-03-23T16:00:01;14.50;99.90
58568;DHT22;44354;46.192;-1.076;2023-03-23T16:02:27;14.60;99.90
58568;DHT22;44354;46.192;-1.076;2023-03-23T16:04:55;14.60;99.90
58568;DHT22;44354;46.192;-1.076;2023-03-23T16:07:23;14.60;99.90
58568;DHT22;44354;46.192;-1.076;2023-03-23T16:09:49;14.70;99.90
58568;DHT22;44354;46.192;-1.076;2023-03-23T16:12:15;14.60;99.90
58568;DHT22;44354;46.192;-1.076;2023-03-23T16:14:42;14.60;99.90
58568;DHT22;44354;46.192;-1.076;2023-03-23T16:17:13;14.50;99.90
58568;DHT22;44354;46.192;-1.076;2023-03-23T16:19:41;14.50;99.90
58568;DHT22;44354;46.192;-1.076;2023-03-23T16:22:07;14.50;99.90
58568;DHT22;44354;46.192;-1.076;2023-03-23T16:24:32;14.50;99.90
58568;DHT22;44354;46.192;-1.076;2023-03-23T16:26:58;14.50;99.90
58568;DHT22;44354;46.192;-1.076;2023-03-23T16:29:23;14.50;99.90
58568;DHT22;44354;46.192;-1.076;2023-03-23T16:31:49;14.50;99.90
58568;DHT22;44354;46.192;-1.076;2023-03-23T16:34:15;14.50;99.90
58568;DHT22;44354;46.192;-1.076;2023-03-23T16:36:40;14.60;99.90
58568;DHT22;44354;46.192;-1.076;2023-03-23T16:39:06;14.60;99.90
58568;DHT22;44354;46.192;-1.076;2023-03-23T16:41:31;14.60;99.90
58568;DHT22;44354;46.192;-1.076;2023-03-23T16:43:57;14.60;99.90
58568;DHT22;44354;46.192;-1.076;2023-03-23T16:46:23;14.60;99.90
58568;DHT22;44354;46.192;-1.076;2023-03-23T16:48:49;14.60;99.90
58568;DHT22;44354;46.192;-1.076;2023-03-23T16:51:15;14.50;99.90
58568;DHT22;44354;46.192;-1.076;2023-03-23T16:53:41;14.60;99.90
58568;DHT22;44354;46.192;-1.076;2023-03-23T16:56:07;14.50;99.90
58568;DHT22;44354;46.192;-1.076;2023-03-23T16:58:32;14.50;99.90
58568;DHT22;44354;46.192;-1.076;2023-03-23T17:00:59;14.50;99.90
58568;DHT22;44354;46.192;-1.076;2023-03-23T17:03:26;14.50;99.90
58568;DHT22;44354;46.192;-1.076;2023-03-23T17:05:51;14.50;99.90
58568;DHT22;44354;46.192;-1.076;2023-03-23T17:08:18;14.40;99.90
58568;DHT22;44354;46.192;-1.076;2023-03-23T17:10:44;14.40;99.90
58568;DHT22;44354;46.192;-1.076;2023-03-23T17:13:10;14.40;99.90
58568;DHT22;44354;46.192;-1.076;2023-03-23T17:15:43;14.30;99.90
58568;DHT22;44354;46.192;-1.076;2023-03-23T17:18:46;14.30;99.90